createdAt,value
2018-11-29T00:00:40.306Z,20.75
2018-11-29T00:03:14.650Z,23.90
2018-11-29T00:05:49.467Z,21.42
2018-11-29T00:08:23.765Z,22.22
2018-11-29T00:10:58.197Z,22.75
2018-11-29T00:13:32.553Z,22.27
2018-11-29T00:16:06.970Z,24.77
2018-11-29T00:18:42.315Z,20.05
2018-11-29T00:21:16.591Z,20.77
2018-11-29T00:23:50.935Z,23.20
2018-11-29T00:26:25.449Z,20.45
2018-11-29T00:28:59.789Z,23.35
2018-11-29T00:31:34.169Z,22.07
2018-11-29T00:34:08.547Z,22.00
2018-11-29T00:36:42.830Z,20.97
2018-11-29T00:39:17.054Z,20.43
2018-11-29T00:41:51.359Z,21.02
2018-11-29T00:44:25.633Z,20.43
2018-11-29T00:47:00.088Z,19.75
2018-11-29T00:49:34.317Z,20.12
2018-11-29T00:52:08.654Z,18.98
2018-11-29T00:54:43.143Z,19.62
2018-11-29T00:57:17.537Z,19.90
2018-11-29T00:59:51.983Z,20.40
2018-11-29T01:02:26.322Z,20.30
2018-11-29T01:05:00.556Z,18.52
2018-11-29T01:07:34.861Z,22.75
2018-11-29T01:10:11.405Z,19.65
2018-11-29T01:12:46.229Z,19.48
2018-11-29T01:15:20.783Z,19.87
2018-11-29T01:17:55.158Z,21.48
2018-11-29T01:20:29.515Z,21.10
2018-11-29T01:23:03.757Z,21.57
2018-11-29T01:25:38.106Z,19.20
2018-11-29T01:28:12.297Z,21.07
2018-11-29T01:30:46.655Z,20.27
2018-11-29T01:33:20.935Z,18.17
2018-11-29T01:35:55.238Z,21.02
2018-11-29T01:38:29.586Z,20.92
2018-11-29T01:41:03.983Z,21.55
2018-11-29T01:43:38.200Z,21.02
2018-11-29T01:46:12.470Z,20.90
2018-11-29T01:48:46.751Z,20.20
2018-11-29T01:51:21.270Z,21.55
2018-11-29T01:53:55.596Z,18.67
2018-11-29T01:56:29.874Z,19.75
2018-11-29T01:59:04.095Z,21.27
2018-11-29T02:01:38.643Z,20.77
2018-11-29T02:04:12.956Z,19.95
2018-11-29T02:06:47.286Z,21.73
2018-11-29T02:09:21.615Z,21.42
2018-11-29T02:11:55.911Z,20.97
2018-11-29T02:14:30.551Z,21.82
2018-11-29T02:17:04.957Z,22.93
2018-11-29T02:19:39.186Z,20.48
2018-11-29T02:22:13.487Z,23.40
2018-11-29T02:24:48.116Z,22.30
2018-11-29T02:27:22.335Z,20.55
2018-11-29T02:29:56.845Z,22.13
2018-11-29T02:32:31.375Z,21.65
2018-11-29T02:35:06.407Z,20.85
2018-11-29T02:37:40.629Z,20.97
2018-11-29T02:40:16.899Z,21.57
2018-11-29T02:42:51.181Z,27.45
2018-11-29T02:45:26.127Z,21.20
2018-11-29T02:48:00.446Z,23.65
2018-11-29T02:50:35.116Z,21.65
2018-11-29T02:53:12.643Z,22.85
2018-11-29T02:55:47.512Z,23.65
2018-11-29T02:58:22.042Z,22.70
2018-11-29T03:01:03.077Z,23.62
2018-11-29T03:03:37.509Z,24.00
2018-11-29T03:06:12.345Z,22.90
2018-11-29T03:08:46.791Z,21.42
2018-11-29T03:11:21.304Z,23.62
2018-11-29T03:13:55.738Z,20.88
2018-11-29T03:16:30.051Z,22.82
2018-11-29T03:19:04.327Z,23.20
2018-11-29T03:21:38.794Z,23.62
2018-11-29T03:24:13.097Z,24.20
2018-11-29T03:26:48.759Z,22.20
2018-11-29T03:29:22.979Z,23.55
2018-11-29T03:31:57.439Z,24.32
2018-11-29T03:34:31.867Z,22.75
2018-11-29T03:37:06.894Z,23.22
2018-11-29T03:39:41.391Z,24.07
2018-11-29T03:42:15.736Z,25.08
2018-11-29T03:44:50.528Z,24.50
2018-11-29T03:47:24.755Z,24.72
2018-11-29T03:49:59.043Z,24.37
2018-11-29T03:52:34.241Z,24.02
2018-11-29T03:55:09.433Z,26.35
2018-11-29T03:57:43.753Z,24.27
2018-11-29T04:00:18.378Z,28.38
2018-11-29T04:02:53.684Z,28.30
2018-11-29T04:05:28.602Z,29.30
2018-11-29T04:08:02.878Z,28.65
2018-11-29T04:10:37.894Z,29.35
2018-11-29T04:13:12.237Z,25.32
2018-11-29T04:15:46.546Z,28.67
2018-11-29T04:18:20.829Z,26.55
2018-11-29T04:20:55.262Z,25.50
2018-11-29T04:23:29.640Z,26.00
2018-11-29T04:26:04.179Z,27.58
2018-11-29T04:28:38.462Z,24.12
2018-11-29T04:31:12.855Z,28.95
2018-11-29T04:33:47.153Z,26.80
2018-11-29T04:36:21.674Z,26.42
2018-11-29T04:38:56.612Z,24.23
2018-11-29T04:41:31.502Z,22.50
2018-11-29T04:44:05.968Z,26.17
2018-11-29T04:46:46.425Z,24.98
2018-11-29T04:49:20.776Z,28.12
2018-11-29T04:51:55.130Z,25.50
2018-11-29T04:54:29.332Z,24.37
2018-11-29T04:57:04.134Z,26.80
2018-11-29T04:59:39.240Z,25.23
2018-11-29T05:02:14.541Z,25.75
2018-11-29T05:04:48.840Z,24.82
2018-11-29T05:07:23.414Z,27.95
2018-11-29T05:09:57.726Z,24.40
2018-11-29T05:12:32.000Z,26.55
2018-11-29T05:15:08.366Z,24.00
2018-11-29T05:17:43.007Z,25.05
2018-11-29T05:20:17.377Z,26.70
2018-11-29T05:22:52.354Z,24.65
2018-11-29T05:25:27.260Z,24.72
2018-11-29T05:28:01.641Z,25.82
2018-11-29T05:30:36.333Z,26.48
2018-11-29T05:33:10.803Z,23.98
2018-11-29T05:35:45.150Z,24.67
2018-11-29T05:38:20.123Z,22.73
2018-11-29T05:40:55.034Z,27.60
2018-11-29T05:43:29.307Z,26.27
2018-11-29T05:46:05.601Z,24.45
2018-11-29T05:48:40.550Z,26.68
2018-11-29T05:51:15.179Z,25.62
2018-11-29T05:53:50.849Z,24.55
2018-11-29T05:56:25.315Z,23.40
2018-11-29T05:58:59.668Z,24.05
2018-11-29T06:01:38.228Z,25.45
2018-11-29T06:04:12.563Z,23.80
2018-11-29T06:06:47.896Z,27.67
2018-11-29T06:09:23.520Z,27.15
2018-11-29T06:11:59.298Z,26.05
2018-11-29T06:14:33.580Z,24.05
2018-11-29T06:17:07.955Z,25.82
2018-11-29T06:19:44.159Z,26.23
2018-11-29T06:22:19.419Z,24.12
2018-11-29T06:24:54.706Z,24.65
2018-11-29T06:27:31.771Z,25.80
2018-11-29T06:30:17.981Z,24.92
2018-11-29T06:32:53.630Z,23.35
2018-11-29T06:35:29.930Z,22.85
2018-11-29T06:38:07.603Z,23.07
2018-11-29T06:40:44.978Z,24.70
2018-11-29T06:43:20.941Z,28.67
2018-11-29T06:45:55.758Z,25.05
2018-11-29T06:48:32.956Z,22.85
2018-11-29T06:51:07.318Z,24.65
2018-11-29T06:53:47.067Z,24.00
2018-11-29T06:56:21.375Z,23.50
2018-11-29T06:58:55.934Z,22.17
2018-11-29T07:04:09.452Z,25.10
2018-11-29T07:06:44.709Z,25.32
2018-11-29T07:09:22.391Z,23.92
2018-11-29T07:12:01.018Z,24.20
2018-11-29T07:14:36.576Z,23.60
2018-11-29T07:17:10.903Z,23.85
2018-11-29T07:19:46.572Z,22.32
2018-11-29T07:22:21.153Z,24.82
2018-11-29T07:24:55.551Z,24.23
2018-11-29T07:27:29.891Z,25.00
2018-11-29T07:30:12.910Z,21.60
2018-11-29T07:32:48.564Z,25.50
2018-11-29T07:35:24.086Z,22.85
2018-11-29T07:37:58.753Z,23.07
2018-11-29T07:40:32.999Z,24.00
2018-11-29T07:43:07.939Z,23.18
2018-11-29T07:45:42.217Z,22.15
2018-11-29T07:48:16.927Z,23.52
2018-11-29T07:50:53.605Z,22.95
2018-11-29T07:53:29.010Z,24.00
2018-11-29T07:56:03.879Z,23.07
2018-11-29T07:58:38.547Z,23.75
2018-11-29T08:01:14.107Z,23.80
2018-11-29T08:03:49.038Z,23.27
2018-11-29T08:06:23.490Z,22.35
2018-11-29T08:08:58.142Z,22.27
2018-11-29T08:11:33.251Z,21.75
2018-11-29T08:14:07.681Z,23.30
2018-11-29T08:16:42.116Z,23.87
2018-11-29T08:19:16.736Z,22.32
2018-11-29T08:21:52.283Z,23.10
2018-11-29T08:24:26.662Z,20.80
2018-11-29T08:27:00.980Z,21.40
2018-11-29T08:29:35.310Z,22.60
2018-11-29T08:32:09.716Z,21.85
2018-11-29T08:34:44.177Z,24.05
2018-11-29T08:37:18.518Z,22.25
2018-11-29T08:39:53.095Z,25.30
2018-11-29T08:42:27.421Z,22.22
2018-11-29T08:45:02.825Z,21.73
2018-11-29T08:47:37.159Z,23.10
2018-11-29T08:50:12.438Z,25.10
2018-11-29T08:52:47.145Z,26.12
2018-11-29T08:55:21.727Z,25.65
2018-11-29T08:57:56.127Z,23.83
2018-11-29T09:00:30.491Z,25.55
2018-11-29T09:03:06.223Z,20.68
2018-11-29T09:05:40.710Z,23.90
2018-11-29T09:08:15.127Z,22.65
2018-11-29T09:10:49.371Z,22.80
2018-11-29T09:13:23.825Z,23.05
2018-11-29T09:15:58.843Z,23.60
2018-11-29T09:18:33.239Z,25.85
2018-11-29T09:21:07.786Z,24.18
2018-11-29T09:23:42.190Z,24.12
2018-11-29T09:26:17.556Z,27.10
2018-11-29T09:28:52.205Z,26.55
2018-11-29T09:31:27.500Z,23.65
2018-11-29T09:34:01.823Z,24.95
2018-11-29T09:36:37.332Z,23.95
2018-11-29T09:39:11.652Z,27.87
2018-11-29T09:41:45.912Z,26.20
2018-11-29T09:44:20.334Z,27.98
2018-11-29T09:46:54.718Z,26.12
2018-11-29T09:49:29.165Z,24.90
2018-11-29T09:52:03.582Z,22.20
2018-11-29T09:54:38.291Z,25.65
2018-11-29T09:57:12.516Z,26.10
2018-11-29T09:59:49.294Z,24.35
2018-11-29T10:02:23.559Z,26.82
2018-11-29T10:04:58.046Z,24.12
2018-11-29T10:07:32.672Z,25.27
2018-11-29T10:10:10.065Z,24.87
2018-11-29T10:12:44.439Z,24.75
2018-11-29T10:15:18.908Z,25.02
2018-11-29T10:17:53.766Z,22.20
2018-11-29T10:20:28.120Z,25.90
2018-11-29T10:23:02.565Z,23.25
2018-11-29T10:25:38.119Z,23.30
2018-11-29T10:28:14.166Z,24.75
2018-11-29T10:30:53.379Z,20.90
2018-11-29T10:36:26.212Z,22.10
2018-11-29T10:39:10.721Z,21.60
2018-11-29T10:41:50.671Z,21.20
2018-11-29T10:47:15.647Z,23.10
2018-11-29T10:49:49.988Z,21.25
2018-11-29T10:52:36.439Z,20.37
2018-11-29T10:58:19.295Z,19.40
2018-11-29T11:01:04.126Z,20.00
2018-11-29T11:03:39.088Z,20.50
2018-11-29T11:06:13.421Z,19.35
2018-11-29T11:08:49.857Z,19.23
2018-11-29T11:11:24.541Z,20.75
2018-11-29T11:13:59.675Z,19.50
2018-11-29T11:16:34.861Z,19.85
2018-11-29T11:19:09.758Z,18.77
2018-11-29T11:21:44.376Z,18.98
2018-11-29T11:24:19.499Z,17.65
2018-11-29T11:26:54.993Z,17.00
2018-11-29T11:29:29.460Z,18.02
2018-11-29T11:32:06.733Z,18.98
2018-11-29T11:34:42.484Z,16.62
2018-11-29T11:37:17.587Z,18.67
2018-11-29T11:39:52.563Z,19.05
2018-11-29T11:42:28.778Z,19.52
2018-11-29T11:45:03.547Z,17.07
2018-11-29T11:47:38.158Z,18.80
2018-11-29T11:50:15.563Z,17.70
2018-11-29T11:52:50.593Z,17.75
2018-11-29T11:55:30.043Z,19.55
2018-11-29T11:58:02.024Z,18.67
2018-11-29T12:00:37.039Z,19.90
2018-11-29T12:03:18.653Z,17.27
2018-11-29T12:05:53.789Z,17.35
2018-11-29T12:08:28.699Z,16.90
2018-11-29T12:13:42.451Z,18.05
2018-11-29T12:16:17.397Z,18.67
2018-11-29T12:18:53.163Z,17.45
2018-11-29T12:21:28.112Z,18.70
2018-11-29T12:24:02.983Z,16.15
2018-11-29T12:26:41.661Z,17.02
2018-11-29T12:29:17.219Z,16.27
2018-11-29T12:31:52.136Z,16.27
2018-11-29T12:34:27.772Z,18.73
2018-11-29T12:37:02.532Z,17.25
2018-11-29T12:39:44.048Z,16.05
2018-11-29T12:42:19.218Z,17.40
2018-11-29T12:44:54.902Z,16.05
2018-11-29T12:47:30.397Z,14.87
2018-11-29T12:50:07.228Z,14.53
2018-11-29T12:52:43.858Z,14.13
2018-11-29T12:55:19.898Z,14.78
2018-11-29T12:58:04.849Z,15.63
2018-11-29T13:00:31.439Z,16.57
2018-11-29T13:03:12.230Z,13.68
2018-11-29T13:05:51.217Z,14.40
2018-11-29T13:08:27.045Z,15.48
2018-11-29T13:11:10.759Z,15.18
2018-11-29T13:13:48.931Z,12.45
2018-11-29T13:16:24.539Z,14.18
2018-11-29T13:19:00.354Z,15.53
2018-11-29T13:21:36.836Z,12.70
2018-11-29T13:24:11.858Z,12.55
2018-11-29T13:26:47.010Z,13.55
2018-11-29T13:29:22.058Z,11.88
2018-11-29T13:31:56.557Z,14.13
2018-11-29T13:34:34.047Z,13.95
2018-11-29T13:37:20.812Z,13.18
2018-11-29T13:39:56.040Z,13.68
2018-11-29T13:42:31.130Z,13.78
2018-11-29T13:45:07.796Z,13.53
2018-11-29T13:47:42.452Z,12.65
2018-11-29T13:50:18.303Z,13.65
2018-11-29T13:52:53.479Z,13.60
2018-11-29T13:55:29.353Z,14.50
2018-11-29T13:58:05.010Z,15.13
2018-11-29T14:00:41.102Z,13.05
2018-11-29T14:03:16.516Z,13.22
2018-11-29T14:05:53.026Z,13.38
2018-11-29T14:08:28.482Z,12.68
2018-11-29T14:11:04.179Z,12.03
2018-11-29T14:13:42.069Z,13.32
2018-11-29T14:16:17.590Z,12.28
2018-11-29T14:18:57.938Z,12.40
2018-11-29T14:21:37.152Z,13.80
2018-11-29T14:24:17.082Z,12.98
2018-11-29T14:26:57.146Z,12.82
2018-11-29T14:29:36.518Z,12.40
2018-11-29T14:32:28.226Z,13.25
2018-11-29T14:35:04.069Z,11.70
2018-11-29T14:37:44.662Z,11.80
2018-11-29T14:40:23.160Z,12.60
2018-11-29T14:43:02.887Z,11.63
2018-11-29T14:48:26.589Z,10.65
2018-11-29T14:51:05.468Z,13.70
2018-11-29T14:53:43.605Z,12.05
2018-11-29T14:56:32.360Z,11.55
2018-11-29T14:59:22.759Z,12.50
2018-11-29T15:02:00.201Z,11.68
2018-11-29T15:04:40.539Z,13.05
2018-11-29T15:10:18.136Z,11.10
2018-11-29T15:12:59.263Z,11.40
2018-11-29T15:15:38.967Z,13.45
2018-11-29T15:30:43.485Z,11.03
2018-11-29T15:39:08.994Z,10.15
2018-11-29T15:41:46.405Z,11.10
2018-11-29T15:44:22.915Z,11.15
2018-11-29T15:47:13.902Z,12.07
2018-11-29T15:49:50.164Z,11.80
2018-11-29T15:52:30.740Z,12.53
2018-11-29T15:55:10.277Z,10.08
2018-11-29T15:57:48.150Z,11.63
2018-11-29T16:03:15.908Z,11.53
2018-11-29T16:05:50.940Z,11.08
2018-11-29T16:08:35.556Z,10.40
2018-11-29T16:11:26.230Z,12.40
2018-11-29T16:17:29.155Z,9.73
2018-11-29T16:20:10.317Z,10.70
2018-11-29T16:23:00.321Z,11.90
2018-11-29T16:25:40.201Z,10.78
2018-11-29T16:28:16.495Z,10.58
2018-11-29T16:31:00.499Z,9.63
2018-11-29T16:33:38.345Z,11.10
2018-11-29T16:36:15.472Z,12.23
2018-11-29T16:38:53.401Z,10.45
2018-11-29T16:41:35.863Z,10.48
2018-11-29T16:44:20.571Z,9.68
2018-11-29T16:46:57.380Z,10.43
2018-11-29T16:49:37.334Z,10.85
2018-11-29T16:52:16.815Z,9.95
2018-11-29T16:54:54.134Z,10.65
2018-11-29T16:57:30.402Z,12.53
2018-11-29T17:00:11.450Z,12.18
2018-11-29T17:02:51.286Z,11.50
2018-11-29T17:05:26.856Z,10.72
2018-11-29T17:08:02.036Z,11.80
2018-11-29T17:10:42.964Z,14.13
2018-11-29T17:13:20.256Z,11.90
2018-11-29T17:15:56.195Z,11.78
2018-11-29T17:18:32.714Z,11.18
2018-11-29T17:21:08.432Z,10.48
2018-11-29T17:23:43.886Z,13.15
2018-11-29T17:26:23.777Z,11.90
2018-11-29T17:29:10.236Z,10.10
2018-11-29T17:32:00.558Z,9.43
2018-11-29T17:34:40.262Z,11.20
2018-11-29T17:37:16.406Z,9.40
2018-11-29T17:39:53.936Z,9.75
2018-11-29T17:42:30.511Z,10.10
2018-11-29T17:45:06.771Z,9.20
2018-11-29T17:47:45.108Z,9.20
2018-11-29T17:50:22.514Z,8.10
2018-11-29T17:52:57.039Z,11.60
2018-11-29T17:55:34.100Z,10.13
2018-11-29T17:58:10.119Z,10.53
2018-11-29T18:00:48.130Z,8.05
2018-11-29T18:03:25.343Z,10.20
2018-11-29T18:06:01.477Z,9.10
2018-11-29T18:08:36.749Z,7.95
2018-11-29T18:11:11.329Z,8.20
2018-11-29T18:13:46.614Z,8.58
2018-11-29T18:16:21.023Z,9.33
2018-11-29T18:18:57.267Z,8.50
2018-11-29T18:21:31.781Z,9.28
2018-11-29T18:24:10.928Z,9.78
2018-11-29T18:26:46.138Z,10.13
2018-11-29T18:29:21.516Z,8.70
2018-11-29T18:31:57.788Z,8.15
2018-11-29T18:34:32.093Z,9.00
2018-11-29T18:37:06.577Z,8.05
2018-11-29T18:39:41.083Z,7.62
2018-11-29T18:42:17.207Z,9.55
2018-11-29T18:44:53.127Z,8.38
2018-11-29T18:47:27.982Z,7.75
2018-11-29T18:50:04.142Z,8.98
2018-11-29T18:52:38.771Z,6.97
2018-11-29T18:55:16.554Z,9.08
2018-11-29T18:57:57.029Z,8.70
2018-11-29T19:00:35.745Z,8.70
2018-11-29T19:03:10.180Z,8.13
2018-11-29T19:05:45.413Z,8.80
2018-11-29T19:08:20.551Z,8.70
2018-11-29T19:10:59.583Z,7.80
2018-11-29T19:13:38.782Z,6.87
2018-11-29T19:16:15.557Z,7.67
2018-11-29T19:18:51.786Z,8.15
2018-11-29T19:21:26.671Z,7.40
2018-11-29T19:24:01.532Z,6.80
2018-11-29T19:26:47.396Z,7.30
2018-11-29T19:29:43.015Z,8.25
2018-11-29T19:37:00.296Z,7.87
2018-11-29T19:43:30.666Z,7.00
2018-11-29T19:49:21.643Z,8.20
2018-11-29T19:56:20.738Z,8.85
2018-11-29T19:59:06.298Z,7.92
2018-11-29T20:08:01.063Z,7.90
2018-11-29T20:21:40.400Z,9.38
2018-11-29T20:24:16.188Z,7.60
2018-11-29T20:26:52.217Z,7.90
2018-11-29T20:30:01.886Z,7.80
2018-11-29T20:35:56.694Z,7.78
2018-11-29T20:38:40.038Z,8.73
2018-11-29T20:41:33.161Z,7.65
2018-11-29T20:46:50.415Z,6.90
2018-11-29T20:49:25.950Z,7.05
2018-11-29T20:52:00.821Z,7.75
2018-11-29T20:54:40.959Z,7.00
2018-11-29T20:57:15.935Z,8.80
2018-11-29T20:59:50.778Z,8.08
2018-11-29T21:02:27.248Z,7.75
2018-11-29T21:05:02.273Z,7.17
2018-11-29T21:07:37.326Z,7.17
2018-11-29T21:10:14.330Z,7.67
2018-11-29T21:12:49.093Z,6.92
2018-11-29T21:15:24.020Z,7.60
2018-11-29T21:17:58.548Z,7.70
2018-11-29T21:20:33.168Z,7.37
2018-11-29T21:23:09.131Z,7.10
2018-11-29T21:25:44.255Z,8.00
2018-11-29T21:28:18.692Z,7.58
2018-11-29T21:30:53.606Z,7.87
2018-11-29T21:33:28.174Z,6.92
2018-11-29T21:36:02.988Z,7.95
2018-11-29T21:38:37.592Z,7.37
2018-11-29T21:41:12.022Z,6.33
2018-11-29T21:43:46.629Z,6.40
2018-11-29T21:46:21.176Z,8.30
2018-11-29T21:48:55.471Z,7.37
2018-11-29T21:51:29.958Z,6.60
2018-11-29T21:54:04.782Z,6.60
2018-11-29T22:03:16.939Z,7.15
2018-11-29T22:05:52.740Z,6.95
2018-11-29T22:08:27.835Z,7.30
2018-11-29T22:11:02.300Z,7.05
2018-11-29T22:13:38.091Z,6.35
2018-11-29T22:16:12.981Z,7.20
2018-11-29T22:18:47.731Z,7.75
2018-11-29T22:21:22.062Z,10.25
2018-11-29T22:23:57.019Z,7.12
2018-11-29T22:26:31.651Z,8.35
2018-11-29T22:29:06.745Z,7.92
2018-11-29T22:31:41.204Z,7.62
2018-11-29T22:34:15.659Z,8.40
2018-11-29T22:36:50.046Z,7.30
2018-11-29T22:39:25.389Z,6.22
2018-11-29T22:44:46.046Z,6.62
2018-11-29T22:47:22.303Z,7.83
2018-11-29T22:49:56.739Z,6.62
2018-11-29T22:52:32.669Z,6.65
2018-11-29T22:55:07.125Z,5.90
2018-11-29T22:57:41.490Z,7.30
2018-11-29T23:00:18.298Z,6.97
2018-11-29T23:02:52.815Z,6.65
2018-11-29T23:05:28.262Z,5.92
2018-11-29T23:08:03.199Z,6.97
2018-11-29T23:10:38.645Z,5.83
2018-11-29T23:13:14.972Z,7.05
2018-11-29T23:15:49.225Z,6.50
2018-11-29T23:18:23.732Z,7.15
2018-11-29T23:20:59.068Z,6.35
2018-11-29T23:23:34.030Z,6.50
2018-11-29T23:26:09.204Z,7.53
2018-11-29T23:28:44.217Z,7.87
2018-11-29T23:31:19.397Z,7.53
2018-11-29T23:33:53.844Z,6.17
2018-11-29T23:36:28.449Z,7.28
2018-11-29T23:39:02.842Z,4.95
2018-11-29T23:41:48.229Z,6.22
2018-11-29T23:44:33.979Z,6.35
2018-11-29T23:47:19.687Z,6.90
2018-11-29T23:49:59.849Z,7.35
2018-11-29T23:52:35.183Z,6.55
2018-11-29T23:55:10.799Z,6.65
2018-11-29T23:57:45.356Z,6.72
